Hsc Superjet — IINO — position and weather

sailwx.info

Track history (hours):
 
Tides and Currents Weather Stations Pressure Air Temp Water Temp Dewpoint Dewpoint Depression Visibility Wind Speed Wind Dir Waves Ship Positions

Hsc Superjet

Last reported at 2014-Aug-21 14:33 UTC. Time now 2014-Aug-22 11:52 UTC.
Position N 40°33' E 014°14'.

Length 44 m; draft 1.4 m.

Type: High speed craft. MMSI: 247540000.

Date/timePositionNaut miles runAvg speedWind from/ knotsBaromVisibWave heightAir tempDewpointWater temp
2014-Aug-21 14:33N 40°33' E 014°14'0 0.3
2014-Aug-21 13:33N 40°34' E 014°15'0 0.1
2014-Aug-21 11:33N 40°33' E 014°14'0 0.0
2014-Aug-20 11:33N 40°33' E 014°14'0 0.1
2014-Aug-20 10:33N 40°33' E 014°15'17 1.2
2014-Aug-19 20:25N 40°50' E 014°16'0 0.0
2014-Aug-19 16:33N 40°50' E 014°16'8 7.9
2014-Aug-19 15:34N 40°42' E 014°16'7 6.5
2014-Aug-19 14:30N 40°35' E 014°17'3 1.5
2014-Aug-19 12:14N 40°35' E 014°12'2 1.4
2014-Aug-19 10:33N 40°33' E 014°14'17 0.9
2014-Aug-18 15:22N 40°50' E 014°17'17 3.5
2014-Aug-18 10:34N 40°33' E 014°14'4 0.1
2014-Aug-16 10:21N 40°38' E 014°17'1 0.0
2014-Aug-15 10:21N 40°37' E 014°16'5 0.2
2014-Aug-14 12:16N 40°33' E 014°17'2 3.2
2014-Aug-14 11:33N 40°35' E 014°15'1 1.1
2014-Aug-14 10:33N 40°35' E 014°13'2 1.7
2014-Aug-14 09:33N 40°36' E 014°15'14 1.1
2014-Aug-13 20:25N 40°50' E 014°16'0 0.0
2014-Aug-13 19:33N 40°50' E 014°16'0 0.0
2014-Aug-13 18:32N 40°50' E 014°16'1 0.2
2014-Aug-13 15:22N 40°50' E 014°16'16 8.9
2014-Aug-13 13:33N 40°34' E 014°15'2 2.0
2014-Aug-13 12:30N 40°36' E 014°13'1 1.4
2014-Aug-13 11:28N 40°35' E 014°14'1 1.5
2014-Aug-13 10:33N 40°33' E 014°14'1715.6
2014-Aug-13 09:28N 40°50' E 014°15'0 0.0
2014-Aug-13 08:33N 40°50' E 014°15'1513.0
2014-Aug-13 07:23N 40°35' E 014°15'15 1.9
2014-Aug-12 23:31N 40°50' E 014°16'0 0.0
2014-Aug-12 20:10N 40°50' E 014°16'0 0.0
2014-Aug-12 19:34N 40°50' E 014°16'0 0.0
2014-Aug-12 18:32N 40°50' E 014°16'0 0.0
2014-Aug-12 16:17N 40°50' E 014°16'0 0.2
2014-Aug-12 15:27N 40°50' E 014°15'12 5.5
2014-Aug-12 13:17N 40°38' E 014°17'1215.5
2014-Aug-12 12:31N 40°50' E 014°15'0 0.1
2014-Aug-12 11:33N 40°50' E 014°15'1716.9
2014-Aug-12 10:33N 40°33' E 014°14'0 0.0
2014-Aug-12 09:10N 40°33' E 014°14'17 3.6
2014-Aug-12 04:32N 40°50' E 014°16'0 0.0
2014-Aug-11 19:26N 40°50' E 014°16'0 0.0
2014-Aug-11 18:33N 40°50' E 014°16'0 0.0
2014-Aug-11 17:32N 40°50' E 014°16'0 0.0
2014-Aug-11 16:34N 40°50' E 014°16'0 0.0
2014-Aug-11 15:33N 40°50' E 014°16'0 0.0
2014-Aug-11 14:33N 40°50' E 014°16'  
Track history (hours):
 
Tides and Currents Weather Stations Pressure Air Temp Water Temp Dewpoint Dewpoint Depression Visibility Wind Speed Wind Dir Waves Ship Positions

Hsc Superjet

Last reported at 2014-Aug-21 14:33 UTC. Time now 2014-Aug-22 11:52 UTC.
Position N 40°33' E 014°14'.

Length 44 m; draft 1.4 m.

Type: High speed craft. MMSI: 247540000.

Date/timePositionNaut miles runAvg speedWind from/ knotsBaromVisibWave heightAir tempDewpointWater temp
2014-Aug-21 14:33N 40°33' E 014°14'0 0.3
2014-Aug-21 13:33N 40°34' E 014°15'0 0.1
2014-Aug-21 11:33N 40°33' E 014°14'0 0.0
2014-Aug-20 11:33N 40°33' E 014°14'0 0.1
2014-Aug-20 10:33N 40°33' E 014°15'17 1.2
2014-Aug-19 20:25N 40°50' E 014°16'0 0.0
2014-Aug-19 16:33N 40°50' E 014°16'8 7.9
2014-Aug-19 15:34N 40°42' E 014°16'7 6.5
2014-Aug-19 14:30N 40°35' E 014°17'3 1.5
2014-Aug-19 12:14N 40°35' E 014°12'2 1.4
2014-Aug-19 10:33N 40°33' E 014°14'17 0.9
2014-Aug-18 15:22N 40°50' E 014°17'17 3.5
2014-Aug-18 10:34N 40°33' E 014°14'4 0.1
2014-Aug-16 10:21N 40°38' E 014°17'1 0.0
2014-Aug-15 10:21N 40°37' E 014°16'5 0.2
2014-Aug-14 12:16N 40°33' E 014°17'2 3.2
2014-Aug-14 11:33N 40°35' E 014°15'1 1.1
2014-Aug-14 10:33N 40°35' E 014°13'2 1.7
2014-Aug-14 09:33N 40°36' E 014°15'14 1.1
2014-Aug-13 20:25N 40°50' E 014°16'0 0.0
2014-Aug-13 19:33N 40°50' E 014°16'0 0.0
2014-Aug-13 18:32N 40°50' E 014°16'1 0.2
2014-Aug-13 15:22N 40°50' E 014°16'16 8.9
2014-Aug-13 13:33N 40°34' E 014°15'2 2.0
2014-Aug-13 12:30N 40°36' E 014°13'1 1.4
2014-Aug-13 11:28N 40°35' E 014°14'1 1.5
2014-Aug-13 10:33N 40°33' E 014°14'1715.6
2014-Aug-13 09:28N 40°50' E 014°15'0 0.0
2014-Aug-13 08:33N 40°50' E 014°15'1513.0
2014-Aug-13 07:23N 40°35' E 014°15'15 1.9
2014-Aug-12 23:31N 40°50' E 014°16'0 0.0
2014-Aug-12 20:10N 40°50' E 014°16'0 0.0
2014-Aug-12 19:34N 40°50' E 014°16'0 0.0
2014-Aug-12 18:32N 40°50' E 014°16'0 0.0
2014-Aug-12 16:17N 40°50' E 014°16'0 0.2
2014-Aug-12 15:27N 40°50' E 014°15'12 5.5
2014-Aug-12 13:17N 40°38' E 014°17'1215.5
2014-Aug-12 12:31N 40°50' E 014°15'0 0.1
2014-Aug-12 11:33N 40°50' E 014°15'1716.9
2014-Aug-12 10:33N 40°33' E 014°14'0 0.0
2014-Aug-12 09:10N 40°33' E 014°14'17 3.6
2014-Aug-12 04:32N 40°50' E 014°16'0 0.0
2014-Aug-11 19:26N 40°50' E 014°16'0 0.0
2014-Aug-11 18:33N 40°50' E 014°16'0 0.0
2014-Aug-11 17:32N 40°50' E 014°16'0 0.0
2014-Aug-11 16:34N 40°50' E 014°16'0 0.0
2014-Aug-11 15:33N 40°50' E 014°16'0 0.0
2014-Aug-11 14:33N 40°50' E 014°16'  

Dump ship's entire track history